Time;durP1;ratioP1;P1;durP2;ratioP2;P2;SDS_P1;SDS_P2;PMS_P1;PMS_P2;Temp;Humidity;BMP_temperature;BMP_pressure;BME280_temperature;BME280_humidity;BME280_pressure;Samples;Min_cycle;Max_cycle;Signal;HPM_P1;HPM_P2
2023/10/16 15:16:36;;;;;;;11.23;10.60;;;22.20;84.70;;;;;;5088837;28;21286;-67
2023/10/16 15:19:07;;;;;;;8.70;8.43;;;22.20;83.40;;;;;;5078460;28;20509;-67
2023/10/16 15:21:34;;;;;;;9.88;9.57;;;22.10;83.60;;;;;;5071356;28;20797;-69
2023/10/16 15:24:03;;;;;;;11.07;10.77;;;22.10;84.30;;;;;;5068379;28;20224;-70
2023/10/16 15:26:30;;;;;;;11.60;11.10;;;22.10;83.50;;;;;;5068132;28;20462;-70
2023/10/16 15:28:57;;;;;;;11.53;11.07;;;22.20;83.70;;;;;;5068055;28;20507;-69
2023/10/16 15:31:24;;;;;;;12.60;11.53;;;22.10;84.00;;;;;;5068448;28;20482;-69
2023/10/16 15:33:53;;;;;;;11.00;10.67;;;22.10;84.30;;;;;;5068307;28;20471;-70
2023/10/16 15:36:21;;;;;;;11.27;10.87;;;22.10;84.40;;;;;;5067834;28;20475;-73
2023/10/16 15:38:48;;;;;;;10.77;10.47;;;22.10;84.30;;;;;;5068328;28;20471;-71
2023/10/16 15:41:16;;;;;;;11.63;11.23;;;22.10;84.30;;;;;;5068572;28;20806;-71
2023/10/16 15:43:43;;;;;;;11.07;10.67;;;22.10;84.30;;;;;;5068313;28;20443;-70
2023/10/16 15:46:25;;;;;;;10.83;10.53;;;22.10;84.30;;;;;;5067939;28;21176;-72
2023/10/16 15:48:54;;;;;;;11.27;10.97;;;22.10;84.30;;;;;;5068103;28;20474;-70
2023/10/16 15:51:22;;;;;;;11.50;11.10;;;22.10;84.30;;;;;;5068177;28;20971;-72
2023/10/16 15:53:50;;;;;;;10.53;10.23;;;22.10;84.30;;;;;;5068026;28;20485;-70
2023/10/16 15:56:18;;;;;;;10.00;9.70;;;22.10;84.30;;;;;;5067790;28;20495;-71
2023/10/16 15:58:45;;;;;;;11.20;10.67;;;22.10;84.30;;;;;;5067650;28;21006;-69
2023/10/16 16:01:12;;;;;;;10.20;9.80;;;22.10;85.00;;;;;;5068056;28;20435;-70
2023/10/16 16:03:40;;;;;;;9.90;9.60;;;22.10;84.20;;;;;;5067874;28;20471;-69
2023/10/16 16:06:11;;;;;;;11.00;10.60;;;22.10;84.10;;;;;;5067870;28;20448;-70
2023/10/16 16:08:38;;;;;;;10.30;9.90;;;22.10;84.00;;;;;;5067470;28;20506;-69
2023/10/16 16:11:05;;;;;;;10.70;10.40;;;22.10;84.00;;;;;;5067988;28;20497;-69
2023/10/16 16:13:33;;;;;;;9.90;9.70;;;22.10;84.00;;;;;;5067848;28;20470;-69
2023/10/16 16:16:00;;;;;;;10.43;10.03;;;22.10;84.00;;;;;;5067015;28;20587;-71
2023/10/16 16:18:27;;;;;;;10.00;9.70;;;22.10;84.00;;;;;;5067542;28;20475;-70
2023/10/16 16:20:54;;;;;;;9.67;9.37;;;22.10;83.90;;;;;;5067627;28;20475;-69
2023/10/16 16:23:25;;;;;;;10.13;9.83;;;22.10;83.90;;;;;;5067524;28;20467;-68
2023/10/16 16:25:53;;;;;;;10.00;9.70;;;22.10;83.90;;;;;;5065118;28;20509;-68
2023/10/16 16:28:20;;;;;;;9.73;9.30;;;22.10;83.90;;;;;;5053688;28;20964;-68
2023/10/16 16:30:47;;;;;;;8.90;8.70;;;22.10;83.90;;;;;;5053994;28;20476;-68
2023/10/16 16:33:14;;;;;;;9.47;9.17;;;22.10;83.80;;;;;;5054121;28;20940;-68
2023/10/16 16:35:41;;;;;;;9.57;9.27;;;22.10;83.90;;;;;;5053597;28;20507;-69
2023/10/16 16:38:08;;;;;;;9.10;8.90;;;22.10;83.80;;;;;;5053994;28;20537;-68
2023/10/16 16:40:38;;;;;;;9.50;9.20;;;22.10;83.70;;;;;;5054029;28;20448;-68
2023/10/16 16:43:06;;;;;;;9.20;8.90;;;22.10;83.70;;;;;;5045861;28;20476;-69
2023/10/16 16:45:33;;;;;;;7.87;7.60;;;22.10;83.70;;;;;;5053583;28;20540;-69
2023/10/16 16:48:00;;;;;;;7.50;7.30;;;22.10;83.60;;;;;;5053450;28;20440;-71
2023/10/16 16:50:28;;;;;;;6.90;6.70;;;22.10;83.90;;;;;;5053817;28;20451;-70
2023/10/16 16:52:55;;;;;;;7.20;7.00;;;22.10;83.90;;;;;;5053551;28;20495;-69
2023/10/16 16:55:23;;;;;;;7.53;7.23;;;22.10;83.80;;;;;;5053089;28;20504;-70
2023/10/16 16:57:51;;;;;;;7.40;7.20;;;22.10;83.60;;;;;;5053555;28;20951;-71
2023/10/16 17:00:26;;;;;;;7.07;6.87;;;22.20;83.40;;;;;;5053529;28;20475;-70
2023/10/16 17:02:55;;;;;;;7.70;7.50;;;22.20;83.20;;;;;;5053455;28;20799;-69
2023/10/16 17:05:23;;;;;;;7.27;7.00;;;22.20;83.00;;;;;;5053074;28;20499;-68
2023/10/16 17:07:51;;;;;;;7.40;7.20;;;22.20;83.20;;;;;;5053362;28;20448;-69
2023/10/16 17:10:25;;;;;;;7.63;7.33;;;22.20;82.10;;;;;;5053458;28;20440;-69
2023/10/16 17:12:54;;;;;;;8.50;8.20;;;22.20;80.60;;;;;;5053075;28;20447;-67
2023/10/16 17:15:23;;;;;;;7.60;7.30;;;22.20;81.00;;;;;;5052974;28;20534;-68
2023/10/16 17:17:52;;;;;;;8.23;7.97;;;22.30;81.70;;;;;;5053161;28;20440;-69
2023/10/16 17:20:20;;;;;;;7.90;7.70;;;22.30;81.70;;;;;;5053232;28;20436;-70
2023/10/16 17:22:50;;;;;;;7.97;7.67;;;22.30;81.70;;;;;;5053162;28;21004;-69
2023/10/16 17:25:17;;;;;;;9.57;9.23;;;22.30;81.70;;;;;;5047172;28;20898;-70
2023/10/16 17:27:44;;;;;;;8.07;7.87;;;22.40;82.00;;;;;;5053003;28;20522;-68
2023/10/16 17:30:13;;;;;;;7.80;7.60;;;22.40;82.00;;;;;;5052956;28;20491;-69
2023/10/16 17:32:40;;;;;;;8.20;7.80;;;22.50;82.20;;;;;;5052659;28;20491;-68
2023/10/16 17:35:09;;;;;;;7.90;7.60;;;22.40;82.30;;;;;;5052885;28;20444;-69
2023/10/16 17:37:39;;;;;;;7.90;7.70;;;22.50;82.30;;;;;;5052491;28;20443;-69
2023/10/16 17:40:10;;;;;;;8.53;8.07;;;22.50;82.40;;;;;;5044334;28;20842;-68
2023/10/16 17:42:37;;;;;;;8.10;7.90;;;22.50;82.30;;;;;;5052872;28;20547;-69
2023/10/16 17:45:05;;;;;;;9.20;8.80;;;22.50;82.00;;;;;;5052402;28;20460;-69
2023/10/16 17:47:33;;;;;;;8.93;8.63;;;22.50;82.00;;;;;;5052652;28;20519;-74
2023/10/16 17:50:01;;;;;;;8.20;7.60;;;22.60;81.50;;;;;;5052944;28;20506;-69
2023/10/16 17:52:33;;;;;;;8.57;7.83;;;22.60;80.90;;;;;;5052529;28;20471;-69
2023/10/16 17:55:00;;;;;;;8.17;7.97;;;22.60;81.50;;;;;;5052240;28;20451;-69
2023/10/16 17:57:27;;;;;;;8.90;8.40;;;22.60;81.50;;;;;;5052576;28;20761;-69
2023/10/16 17:59:55;;;;;;;7.60;7.40;;;22.60;81.50;;;;;;5052336;28;20840;-73
2023/10/16 18:02:22;;;;;;;7.47;7.27;;;22.70;81.40;;;;;;5052255;28;20447;-69
2023/10/16 18:04:52;;;;;;;8.83;8.40;;;22.70;81.30;;;;;;5052124;28;20479;-71
2023/10/16 18:07:19;;;;;;;7.60;7.40;;;22.70;81.20;;;;;;5052293;28;20443;-71
2023/10/16 18:09:46;;;;;;;6.97;6.77;;;22.70;80.80;;;;;;5052120;28;20488;-71
2023/10/16 18:12:19;;;;;;;6.80;6.60;;;22.70;80.80;;;;;;5051720;28;20502;-70
2023/10/16 18:14:46;;;;;;;8.07;7.60;;;22.70;80.80;;;;;;5051585;28;20463;-75
2023/10/16 18:17:13;;;;;;;7.00;6.70;;;22.70;80.90;;;;;;5052304;28;20500;-71
2023/10/16 18:19:40;;;;;;;7.47;7.27;;;22.70;81.30;;;;;;5052359;28;20549;-70
2023/10/16 18:22:09;;;;;;;6.90;6.70;;;22.70;80.80;;;;;;5043499;28;20477;-68
2023/10/16 18:24:40;;;;;;;7.50;7.20;;;22.70;80.70;;;;;;5051920;28;20486;-68
2023/10/16 18:27:08;;;;;;;7.60;7.30;;;22.70;80.70;;;;;;5035904;28;20528;-68
2023/10/16 18:29:36;;;;;;;7.47;7.00;;;22.70;80.80;;;;;;5052064;28;20920;-67
2023/10/16 18:32:03;;;;;;;7.57;7.27;;;22.70;80.70;;;;;;5051790;28;20452;-68
2023/10/16 18:34:31;;;;;;;7.80;7.40;;;22.70;80.50;;;;;;5051898;28;20979;-66
2023/10/16 18:36:58;;;;;;;7.53;7.23;;;22.70;80.30;;;;;;5051631;28;20480;-67
2023/10/16 18:39:32;;;;;;;6.97;6.67;;;22.70;80.30;;;;;;5051655;28;20997;-68
2023/10/16 18:42:02;;;;;;;6.90;6.70;;;22.70;80.10;;;;;;5051213;28;21224;-68
2023/10/16 18:44:41;;;;;;;7.13;6.87;;;22.70;80.00;;;;;;5051374;28;20827;-74
2023/10/16 18:47:12;;;;;;;7.10;6.83;;;22.70;80.20;;;;;;5050431;28;20963;-71
2023/10/16 18:49:41;;;;;;;6.87;6.67;;;22.70;80.00;;;;;;5050939;28;20469;-70
2023/10/16 18:52:08;;;;;;;7.37;7.13;;;22.70;80.40;;;;;;5043309;28;20869;-70
2023/10/16 18:54:41;;;;;;;7.10;6.90;;;22.80;80.30;;;;;;5051593;28;20452;-70
2023/10/16 18:57:09;;;;;;;7.30;7.10;;;22.80;79.90;;;;;;5051383;28;20476;-70
2023/10/16 18:59:40;;;;;;;7.17;6.87;;;22.80;79.50;;;;;;5083289;28;20491;-69
2023/10/16 19:02:09;;;;;;;7.47;7.27;;;22.80;79.30;;;;;;5051208;28;20447;-70
2023/10/16 19:04:38;;;;;;;7.60;7.30;;;22.80;79.20;;;;;;5051307;28;20502;-70
2023/10/16 19:07:07;;;;;;;7.50;7.30;;;22.70;78.80;;;;;;5051682;28;20792;-70
2023/10/16 19:09:37;;;;;;;7.30;7.10;;;22.80;79.00;;;;;;5050729;28;20468;-69
2023/10/16 19:12:08;;;;;;;7.80;7.50;;;22.80;78.50;;;;;;5050880;28;20531;-70
2023/10/16 19:14:38;;;;;;;6.93;6.73;;;22.80;79.10;;;;;;5051140;28;20506;-70
2023/10/16 19:17:11;;;;;;;6.90;6.77;;;22.80;79.40;;;;;;5051295;28;20507;-69
2023/10/16 19:19:41;;;;;;;8.07;7.77;;;22.80;79.30;;;;;;5051140;28;20472;-71
2023/10/16 19:22:09;;;;;;;7.60;7.40;;;22.80;78.90;;;;;;5051053;28;20467;-71
2023/10/16 19:24:38;;;;;;;7.27;7.10;;;22.90;78.70;;;;;;5051337;28;20440;-70
2023/10/16 19:27:08;;;;;;;8.93;8.50;;;22.90;78.80;;;;;;5051211;28;20449;-69
2023/10/16 19:29:35;;;;;;;7.67;7.47;;;22.90;78.50;;;;;;5050913;28;20906;-69
2023/10/16 19:32:06;;;;;;;8.60;8.10;;;22.90;78.50;;;;;;5051087;28;20444;-71
2023/10/16 19:34:34;;;;;;;7.97;7.77;;;22.90;79.00;;;;;;5050044;28;20447;-72
2023/10/16 19:37:04;;;;;;;8.80;8.40;;;22.90;79.10;;;;;;5050776;28;20561;-72
2023/10/16 19:39:35;;;;;;;8.03;7.73;;;22.90;78.90;;;;;;5050307;28;20468;-72
2023/10/16 19:42:03;;;;;;;7.57;7.37;;;23.00;78.90;;;;;;5051129;28;20449;-71
2023/10/16 19:44:37;;;;;;;8.13;7.80;;;23.00;78.70;;;;;;5050866;28;20471;-72
2023/10/16 19:47:06;;;;;;;7.10;6.90;;;23.00;78.60;;;;;;5050662;28;20451;-70
2023/10/16 19:49:36;;;;;;;7.50;7.10;;;23.00;78.60;;;;;;5050525;28;20468;-74
2023/10/16 19:52:06;;;;;;;8.13;7.57;;;23.00;79.50;;;;;;5050981;28;20519;-72
2023/10/16 19:54:33;;;;;;;8.00;7.60;;;23.00;78.40;;;;;;5050255;28;20863;-71
2023/10/16 19:57:01;;;;;;;7.70;7.40;;;23.00;78.30;;;;;;5049321;28;21060;-70
2023/10/16 19:59:32;;;;;;;7.10;6.90;;;23.00;77.80;;;;;;5050945;28;20483;-70
2023/10/16 20:02:05;;;;;;;7.40;7.10;;;22.90;77.90;;;;;;5051854;28;20448;-70
2023/10/16 20:04:34;;;;;;;6.97;6.77;;;22.90;78.10;;;;;;5054831;28;20808;-72
2023/10/16 20:07:02;;;;;;;7.83;7.50;;;22.80;78.60;;;;;;5054453;28;20486;-68
2023/10/16 20:09:42;;;;;;;6.87;6.67;;;22.80;78.60;;;;;;5054784;28;20464;-69
2023/10/16 20:12:12;;;;;;;8.43;8.13;;;22.70;78.50;;;;;;5054230;28;20899;-69
2023/10/16 20:14:42;;;;;;;8.17;7.73;;;22.70;78.60;;;;;;5054407;28;20541;-70
2023/10/16 20:17:14;;;;;;;8.40;8.10;;;22.70;78.80;;;;;;5054237;28;20490;-70
2023/10/16 20:19:45;;;;;;;8.17;7.67;;;22.70;78.80;;;;;;5053634;28;20553;-70
2023/10/16 20:22:15;;;;;;;7.80;7.50;;;22.70;78.80;;;;;;5054452;28;20527;-69
2023/10/16 20:24:42;;;;;;;8.10;7.80;;;22.60;78.80;;;;;;5054336;28;20940;-69
2023/10/16 20:27:09;;;;;;;7.80;7.50;;;22.60;78.90;;;;;;5054056;28;20474;-69
2023/10/16 20:29:37;;;;;;;7.60;7.30;;;22.50;78.90;;;;;;5054425;28;20499;-69
2023/10/16 20:32:05;;;;;;;7.43;7.13;;;22.50;79.00;;;;;;5054098;28;20455;-70
2023/10/16 20:34:35;;;;;;;7.80;7.43;;;22.50;79.00;;;;;;5054131;28;20467;-70
2023/10/16 20:37:03;;;;;;;7.80;7.50;;;22.50;79.00;;;;;;5053787;28;20515;-70
2023/10/16 20:39:30;;;;;;;7.67;7.37;;;22.40;78.90;;;;;;5054038;28;20526;-70
2023/10/16 20:41:57;;;;;;;9.10;8.70;;;22.40;78.90;;;;;;5053961;28;20444;-70
2023/10/16 20:44:24;;;;;;;7.57;7.37;;;22.40;78.90;;;;;;5053853;28;20531;-70
2023/10/16 20:46:51;;;;;;;7.57;7.37;;;22.40;79.00;;;;;;5053651;28;20444;-70
2023/10/16 20:49:18;;;;;;;7.07;6.87;;;22.40;78.80;;;;;;5053978;28;20495;-69
2023/10/16 20:51:46;;;;;;;6.90;6.70;;;22.30;78.90;;;;;;5054179;28;20475;-72
2023/10/16 20:54:14;;;;;;;7.23;6.90;;;22.30;78.80;;;;;;5045427;28;20440;-70
2023/10/16 20:56:42;;;;;;;7.00;6.80;;;22.30;78.90;;;;;;5053514;28;21017;-70
2023/10/16 20:59:09;;;;;;;7.90;7.50;;;22.20;78.90;;;;;;5053585;28;21076;-70
2023/10/16 21:01:36;;;;;;;6.53;6.33;;;22.20;78.90;;;;;;5053802;28;20475;-70
2023/10/16 21:04:03;;;;;;;6.73;6.50;;;22.20;79.00;;;;;;5053346;28;20452;-70
2023/10/16 21:06:30;;;;;;;6.83;6.57;;;22.20;79.00;;;;;;5053291;28;20455;-70
2023/10/16 21:08:59;;;;;;;6.50;6.30;;;22.20;78.80;;;;;;5053516;28;20491;-69
2023/10/16 21:11:26;;;;;;;7.03;6.80;;;22.10;78.90;;;;;;5053723;28;20437;-70
2023/10/16 21:13:52;;;;;;;7.67;7.27;;;22.10;79.10;;;;;;5053248;28;20566;-69
2023/10/16 21:16:19;;;;;;;6.83;6.53;;;22.10;79.20;;;;;;5053005;28;20515;-69
2023/10/16 21:18:48;;;;;;;7.57;7.07;;;22.10;79.20;;;;;;5053423;28;20498;-69
2023/10/16 21:21:15;;;;;;;6.97;6.67;;;22.10;79.20;;;;;;5045242;28;20506;-71
2023/10/16 21:23:43;;;;;;;7.10;6.80;;;22.00;79.20;;;;;;5053131;28;20448;-71
2023/10/16 21:26:16;;;;;;;6.97;6.70;;;22.00;79.40;;;;;;5052710;28;20532;-70
2023/10/16 21:28:42;;;;;;;7.00;6.63;;;22.00;79.30;;;;;;5053260;28;20464;-70
2023/10/16 21:31:10;;;;;;;6.90;6.60;;;22.00;79.40;;;;;;5053135;28;20989;-70
2023/10/16 21:33:37;;;;;;;6.80;6.60;;;22.00;79.50;;;;;;5053054;28;20448;-70
2023/10/16 21:36:04;;;;;;;6.60;6.40;;;22.00;79.40;;;;;;5052652;28;20480;-70
2023/10/16 21:38:30;;;;;;;6.53;6.33;;;21.90;79.30;;;;;;5052882;28;20821;-70
2023/10/16 21:41:00;;;;;;;6.60;6.30;;;21.90;79.50;;;;;;5052911;28;20449;-69
2023/10/16 21:43:28;;;;;;;6.93;6.70;;;21.90;79.80;;;;;;5052903;28;20476;-70
2023/10/16 21:45:57;;;;;;;7.13;6.83;;;21.90;79.90;;;;;;5052359;28;20880;-70
2023/10/16 21:48:24;;;;;;;6.97;6.67;;;21.90;79.90;;;;;;5052897;28;20986;-70
2023/10/16 21:50:52;;;;;;;7.13;6.73;;;21.90;79.90;;;;;;5052588;28;20476;-70
2023/10/16 21:53:19;;;;;;;6.57;6.37;;;21.90;80.00;;;;;;5052318;28;20970;-70
2023/10/16 21:55:46;;;;;;;7.23;6.83;;;21.80;80.00;;;;;;5052549;28;20948;-69
2023/10/16 21:58:14;;;;;;;7.03;6.67;;;21.90;80.00;;;;;;5052602;28;20518;-70
2023/10/16 22:00:57;;;;;;;6.60;6.30;;;21.90;80.10;;;;;;5052507;28;20448;-70
2023/10/16 22:03:25;;;;;;;6.23;5.93;;;21.80;80.00;;;;;;5045263;28;20597;-71
2023/10/16 22:05:52;;;;;;;6.30;6.10;;;21.80;80.00;;;;;;5052244;28;20448;-72
2023/10/16 22:08:20;;;;;;;6.70;6.40;;;21.80;80.10;;;;;;5052479;28;20564;-71
2023/10/16 22:10:46;;;;;;;6.33;6.03;;;21.70;80.00;;;;;;5052454;28;21047;-71
2023/10/16 22:13:14;;;;;;;7.13;6.80;;;21.70;80.10;;;;;;5051949;28;20487;-71
2023/10/16 22:15:42;;;;;;;7.07;6.77;;;21.70;80.10;;;;;;5052094;28;20447;-70
2023/10/16 22:18:10;;;;;;;6.30;6.10;;;21.70;80.20;;;;;;5051974;28;20541;-71
2023/10/16 22:20:37;;;;;;;6.33;6.13;;;21.70;80.20;;;;;;5052473;28;20452;-70
2023/10/16 22:23:06;;;;;;;6.93;6.63;;;21.70;80.30;;;;;;5052070;28;20454;-71
2023/10/16 22:25:36;;;;;;;6.90;6.60;;;21.60;80.20;;;;;;5051575;28;20448;-71
2023/10/16 22:28:03;;;;;;;6.43;6.13;;;21.60;80.10;;;;;;5051951;28;20527;-70
2023/10/16 22:30:30;;;;;;;6.67;6.47;;;21.60;80.30;;;;;;5052041;28;20525;-71
2023/10/16 22:32:59;;;;;;;7.50;7.30;;;21.60;80.30;;;;;;5051617;28;20959;-71
2023/10/16 22:35:26;;;;;;;6.77;6.47;;;21.60;80.30;;;;;;5051903;28;21018;-72
2023/10/16 22:37:53;;;;;;;6.60;6.40;;;21.60;80.40;;;;;;5051689;28;20906;-69
2023/10/16 22:40:24;;;;;;;6.77;6.57;;;21.60;80.40;;;;;;5051741;28;20954;-71
2023/10/16 22:42:53;;;;;;;6.20;6.00;;;21.60;80.50;;;;;;5051614;28;20893;-71
2023/10/16 22:45:22;;;;;;;6.70;6.40;;;21.50;80.40;;;;;;5044028;28;20475;-68
2023/10/16 22:47:51;;;;;;;6.67;6.43;;;21.50;80.50;;;;;;5051777;28;20444;-69
2023/10/16 22:50:20;;;;;;;7.00;6.70;;;21.50;80.40;;;;;;5043599;28;20451;-69
2023/10/16 22:52:47;;;;;;;6.57;6.37;;;21.50;80.40;;;;;;5051372;28;20989;-68
2023/10/16 22:55:15;;;;;;;6.97;6.67;;;21.50;80.50;;;;;;5051477;28;20918;-69
2023/10/16 22:57:42;;;;;;;6.03;5.83;;;21.50;80.60;;;;;;5051525;28;20484;-69
2023/10/16 23:00:13;;;;;;;6.87;6.57;;;21.40;80.50;;;;;;5051398;28;20492;-69
2023/10/16 23:02:39;;;;;;;6.87;6.67;;;21.40;80.60;;;;;;5051348;28;20832;-68
2023/10/16 23:05:08;;;;;;;7.40;7.10;;;21.50;80.70;;;;;;5051380;28;20471;-68
2023/10/16 23:07:37;;;;;;;6.27;5.97;;;21.40;80.60;;;;;;5051541;28;20445;-68
2023/10/16 23:10:08;;;;;;;7.37;7.00;;;21.40;80.70;;;;;;5051234;28;20483;-70
2023/10/16 23:12:38;;;;;;;6.77;6.47;;;21.40;80.70;;;;;;5051239;28;20492;-71
2023/10/16 23:15:17;;;;;;;6.93;6.63;;;21.40;80.70;;;;;;5051092;28;21034;-68
2023/10/16 23:17:47;;;;;;;6.37;6.13;;;21.40;80.90;;;;;;5051484;28;20483;-69
2023/10/16 23:20:16;;;;;;;6.27;6.07;;;21.50;80.90;;;;;;5051396;28;20440;-70
2023/10/16 23:22:46;;;;;;;6.30;6.10;;;21.40;80.90;;;;;;5051236;28;20804;-68
2023/10/16 23:25:13;;;;;;;6.13;5.90;;;21.40;81.10;;;;;;5051241;28;20440;-69
2023/10/16 23:27:42;;;;;;;6.43;6.13;;;21.40;81.00;;;;;;5051417;28;20809;-69
2023/10/16 23:30:14;;;;;;;6.77;6.57;;;21.40;81.00;;;;;;5051033;28;20510;-69
2023/10/16 23:32:42;;;;;;;7.20;6.90;;;21.40;80.90;;;;;;5051555;28;20943;-68
2023/10/16 23:35:10;;;;;;;6.23;5.80;;;21.40;80.90;;;;;;5051360;28;20532;-68
2023/10/16 23:37:37;;;;;;;7.13;6.83;;;21.40;80.90;;;;;;5054273;28;20545;-69
2023/10/16 23:40:41;;;;;;;7.13;6.73;;;21.30;80.90;;;;;;5055526;28;20492;-68
2023/10/16 23:42:58;;;;;;;7.03;6.43;;;21.30;80.90;;;;;;5055212;28;20436;-68
2023/10/16 23:45:25;;;;;;;7.20;6.90;;;21.40;81.00;;;;;;5055557;28;20474;-69
2023/10/16 23:47:54;;;;;;;7.37;7.07;;;21.40;81.00;;;;;;5055088;28;20448;-69
2023/10/16 23:50:28;;;;;;;7.07;6.87;;;21.30;80.90;;;;;;5054888;28;20531;-69
2023/10/16 23:53:11;;;;;;;6.00;5.80;;;21.40;81.10;;;;;;5055300;28;20440;-70
2023/10/16 23:55:51;;;;;;;6.03;5.83;;;21.30;80.90;;;;;;5055012;28;20466;-70
2023/10/16 23:58:20;;;;;;;7.10;6.80;;;21.30;81.00;;;;;;5055049;28;20900;-69
